Airfield :
LOGIN :

Register | Disclaimer

   EN    FR    IT 

 










Legend :    VFR   Marginal VFR   IFR   Intensive IFR   Very Intensive IFR
Visi :
Ceiling :
>= 8 km
>= 3000ft
5 to 8 km
1000 to 3000 ft
1500m to 5 km
500 to 1000 ft
800 to 1500m
200 to 500 ft
< 800m
< 200 ft
Symbols :   Thunderstorms  Fog  Heavy snow  Heavy precipitations  Wind > 20 kt
SIGMETs :     Misc.  Thunderstorms  Icing  Turbulence  Mountain Waves  Volcanic Ashes







- Airport Elevation : 242 ft
- IATA code : DUB


EIDW - Dublin

CURRENT METAR :
  • 231400Z 30019KT 9999 VCSH FEW020CB 11/05 Q1027 NOSIG

EXPIRED METARs :
  • 231330Z 30019KT 9999 VCSH FEW020CB 12/04 Q1026 NOSIG
  • 231300Z 32015KT 290V350 9999 VCSH SCT025 SCT050 12/04 Q1026 NOSIG
  • 231230Z 32014KT 9999 FEW025 SCT050 12/03 Q1025 NOSIG
  • 231200Z 32016KT 9999 VCSH SCT025 SCT045 11/03 Q1025 NOSIG
  • 231130Z 32017KT 9999 SCT025 12/03 Q1024 NOSIG

TAF TAF EIDW
Valid from the 23 at 12:00 until the 24 at 12:00 UTC


231100Z 2312/2412 32014KT 9999 SCT025
TEMPO 2312/2316 33016G28KT -SHRA
BECMG 2318/2321 30009KT
BECMG 2403/2406 27008KT
No reported NOTAMs for that airfield.



MET'MAP, your aeronautical weather chart ! - Copyright ORBIFLY December 2007 - Disclaimer

ORBIFLY MET'MAP TEAM :

Programming & Development : Alexandra Zaïnal
Concept & Development : Baudouin d'Aumeries
Co-Development & Prog : Marc-Olivier Méhu
Technical & hardware support : Manuel Goepfert

Contact : metmap@orbifly.com




SOURCES & CREDITS :

   NOAA